createdAt,value
2022-12-25T00:02:15.165Z,101655.19
2022-12-25T00:04:41.814Z,101661.03
2022-12-25T00:07:08.364Z,101659.19
2022-12-25T00:09:34.869Z,101651.03
2022-12-25T00:12:01.506Z,101656.31
2022-12-25T00:14:28.157Z,101657.09
2022-12-25T00:16:54.692Z,101640.19
2022-12-25T00:19:21.258Z,101644.19
2022-12-25T00:21:47.732Z,101647.16
2022-12-25T00:24:14.230Z,101643.72
2022-12-25T00:26:40.799Z,101650.38
2022-12-25T00:29:07.440Z,101653.56
2022-12-25T00:31:35.187Z,101656.44
2022-12-25T00:34:01.804Z,101652.50
2022-12-25T00:36:28.309Z,101646.19
2022-12-25T00:38:54.932Z,101643.03
2022-12-25T00:41:41.940Z,101645.69
2022-12-25T00:44:10.357Z,101632.53
2022-12-25T00:46:37.329Z,101641.50
2022-12-25T00:49:04.121Z,101646.31
2022-12-25T00:51:30.644Z,101652.16
2022-12-25T00:53:57.285Z,101651.38
2022-12-25T00:56:23.975Z,101648.47
2022-12-25T00:58:50.607Z,101648.22
2022-12-25T01:01:18.070Z,101654.06
2022-12-25T01:03:44.655Z,101652.47
2022-12-25T01:06:13.095Z,101648.53
2022-12-25T01:09:01.546Z,101649.09
2022-12-25T01:11:28.423Z,101650.69
2022-12-25T01:13:54.996Z,101649.88
2022-12-25T01:16:21.660Z,101654.94
2022-12-25T01:18:48.473Z,101657.31
2022-12-25T01:21:16.745Z,101663.44
2022-12-25T01:23:44.728Z,101664.00
2022-12-25T01:26:12.880Z,101671.66
2022-12-25T01:28:40.346Z,101667.19
2022-12-25T01:31:11.511Z,101666.13
2022-12-25T01:33:40.807Z,101670.41
2022-12-25T01:36:17.566Z,101681.56
2022-12-25T01:38:44.496Z,101669.91
2022-12-25T01:41:12.675Z,101670.69
2022-12-25T01:44:08.332Z,101662.50
2022-12-25T01:46:35.627Z,101658.00
2022-12-25T01:49:06.730Z,101656.19
2022-12-25T01:51:41.396Z,101656.19
2022-12-25T01:54:20.340Z,101655.63
2022-12-25T01:56:49.343Z,101667.00
2022-12-25T01:59:19.714Z,101668.88
2022-12-25T02:01:47.129Z,101666.22
2022-12-25T02:04:38.834Z,101673.34
2022-12-25T02:07:19.541Z,101672.53
2022-12-25T02:09:46.889Z,101674.41
2022-12-25T02:12:45.192Z,101673.84
2022-12-25T02:15:18.688Z,101661.63
2022-12-25T02:18:01.107Z,101661.91
2022-12-25T02:20:55.921Z,101667.91
2022-12-25T02:24:04.311Z,101674.75
2022-12-25T02:26:39.349Z,101660.47
2022-12-25T02:29:29.187Z,101662.00
2022-12-25T02:32:02.868Z,101654.88
2022-12-25T02:34:41.463Z,101662.81
2022-12-25T02:37:15.011Z,101656.41
2022-12-25T02:39:59.757Z,101665.41
2022-12-25T02:43:10.729Z,101667.78
2022-12-25T02:46:22.377Z,101661.97
2022-12-25T02:49:13.050Z,101661.47
2022-12-25T02:52:03.697Z,101651.66
2022-12-25T02:54:56.190Z,101655.59
2022-12-25T02:57:47.736Z,101647.34
2022-12-25T03:00:34.035Z,101643.66
2022-12-25T03:03:23.416Z,101640.53
2022-12-25T03:06:11.290Z,101630.19
2022-12-25T03:08:41.433Z,101618.56
2022-12-25T03:11:30.313Z,101614.84
2022-12-25T03:14:44.593Z,101608.28
2022-12-25T03:17:11.421Z,101605.88
2022-12-25T03:19:56.621Z,101603.22
2022-12-25T03:22:47.931Z,101598.47
2022-12-25T03:25:34.276Z,101599.03
2022-12-25T03:28:01.514Z,101590.84
2022-12-25T03:31:12.833Z,101596.94
2022-12-25T03:34:23.116Z,101606.22
2022-12-25T03:37:43.229Z,101603.09
2022-12-25T03:40:47.389Z,101603.16
2022-12-25T03:44:09.568Z,101602.34
2022-12-25T03:47:11.638Z,101605.56
2022-12-25T03:50:08.654Z,101610.91
2022-12-25T03:52:57.110Z,101610.34
2022-12-25T03:55:44.360Z,101597.16
2022-12-25T03:58:40.958Z,101606.97
2022-12-25T04:01:26.422Z,101604.56
2022-12-25T04:04:11.893Z,101597.72
2022-12-25T04:06:57.200Z,101593.47
2022-12-25T04:09:42.511Z,101581.84
2022-12-25T04:12:28.414Z,101587.13
2022-12-25T04:15:13.781Z,101581.84
2022-12-25T04:17:59.067Z,101584.41
2022-12-25T04:20:44.169Z,101587.88
2022-12-25T04:23:29.481Z,101584.69
2022-12-25T04:26:16.704Z,101595.75
2022-12-25T04:29:01.727Z,101610.59
2022-12-25T04:31:46.988Z,101604.25
2022-12-25T04:34:32.116Z,101610.31
2022-12-25T04:36:58.826Z,101612.94
2022-12-25T04:39:25.384Z,101602.13
2022-12-25T04:41:51.880Z,101601.28
2022-12-25T04:44:18.414Z,101596.50
2022-12-25T04:46:45.166Z,101601.81
2022-12-25T04:49:11.859Z,101597.25
2022-12-25T04:51:38.488Z,101596.44
2022-12-25T04:54:05.201Z,101593.00
2022-12-25T04:56:31.778Z,101594.28
2022-12-25T04:58:58.303Z,101594.53
2022-12-25T05:01:25.033Z,101592.69
2022-12-25T05:03:52.121Z,101580.75
2022-12-25T05:06:18.705Z,101573.03
2022-12-25T05:08:45.214Z,101573.03
2022-12-25T05:11:15.091Z,101577.78
2022-12-25T05:13:42.203Z,101578.84
2022-12-25T05:16:18.044Z,101583.34
2022-12-25T05:18:44.970Z,101576.72
2022-12-25T05:21:12.381Z,101564.50
2022-12-25T05:23:39.202Z,101562.66
2022-12-25T05:26:07.092Z,101548.63
2022-12-25T05:28:36.665Z,101553.38
2022-12-25T05:31:03.279Z,101553.38
2022-12-25T05:33:29.989Z,101551.50
2022-12-25T05:35:56.631Z,101544.63
2022-12-25T05:38:23.212Z,101539.59
2022-12-25T05:40:52.051Z,101530.63
2022-12-25T05:43:19.738Z,101531.09
2022-12-25T05:45:46.331Z,101531.09
2022-12-25T05:48:12.883Z,101542.47
2022-12-25T05:50:39.421Z,101532.72
2022-12-25T05:53:08.488Z,101532.72
2022-12-25T05:55:37.277Z,101535.34
2022-12-25T05:58:04.812Z,101538.78
2022-12-25T06:00:32.161Z,101538.78
2022-12-25T06:02:59.299Z,101541.44
2022-12-25T06:05:26.038Z,101542.22
2022-12-25T06:07:52.616Z,101537.72
2022-12-25T06:10:19.507Z,101533.25
2022-12-25T06:12:46.219Z,101526.09
2022-12-25T06:15:12.756Z,101519.75
2022-12-25T06:17:39.489Z,101518.97
2022-12-25T06:20:07.248Z,101516.88
2022-12-25T06:22:34.638Z,101505.50
2022-12-25T06:25:01.370Z,101514.22
2022-12-25T06:27:28.599Z,101515.00
2022-12-25T06:29:55.563Z,101512.91
2022-12-25T06:32:22.087Z,101522.47
2022-12-25T06:34:48.911Z,101516.13
2022-12-25T06:37:15.556Z,101523.25
2022-12-25T06:39:42.081Z,101519.88
2022-12-25T06:42:09.110Z,101516.44
2022-12-25T06:44:35.709Z,101503.50
2022-12-25T06:47:02.395Z,101494.25
2022-12-25T06:49:28.881Z,101494.00
2022-12-25T06:51:55.450Z,101503.53
2022-12-25T06:54:21.986Z,101496.38
2022-12-25T06:56:48.848Z,101508.91
2022-12-25T06:59:15.614Z,101494.59
2022-12-25T07:01:52.563Z,101486.66
2022-12-25T07:04:41.210Z,101481.66
2022-12-25T07:07:09.787Z,101479.81
2022-12-25T07:09:38.827Z,101476.38
2022-12-25T07:12:15.216Z,101478.50
2022-12-25T07:14:42.110Z,101482.75
2022-12-25T07:17:08.720Z,101488.06
2022-12-25T07:19:39.650Z,101484.34
2022-12-25T07:22:09.531Z,101485.16
2022-12-25T07:24:36.135Z,101496.31
2022-12-25T07:27:02.825Z,101512.19
2022-12-25T07:29:29.346Z,101502.38
2022-12-25T07:31:56.025Z,101499.22
2022-12-25T07:34:24.033Z,101507.97
2022-12-25T07:36:50.596Z,101500.06
2022-12-25T07:39:17.577Z,101499.31
2022-12-25T07:41:44.655Z,101492.53
2022-12-25T07:44:11.275Z,101490.44
2022-12-25T07:46:37.966Z,101508.53
2022-12-25T07:49:04.489Z,101503.53
2022-12-25T07:51:31.268Z,101514.50
2022-12-25T07:53:57.825Z,101523.03
2022-12-25T07:56:24.542Z,101522.56
2022-12-25T07:58:51.190Z,101512.53
2022-12-25T08:01:21.341Z,101510.47
2022-12-25T08:03:53.538Z,101502.28
2022-12-25T08:06:21.177Z,101519.56
2022-12-25T08:08:47.929Z,101516.66
2022-12-25T08:11:14.541Z,101518.28
2022-12-25T08:13:41.428Z,101523.34
2022-12-25T08:16:10.195Z,101528.94
2022-12-25T08:18:37.953Z,101540.38
2022-12-25T08:21:06.857Z,101536.13
2022-12-25T08:23:36.742Z,101547.31
2022-12-25T08:26:05.941Z,101547.88
2022-12-25T08:28:33.534Z,101543.34
2022-12-25T08:31:00.302Z,101543.13
2022-12-25T08:33:26.957Z,101545.00
2022-12-25T08:35:53.535Z,101535.97
2022-12-25T08:38:20.111Z,101534.38
2022-12-25T08:40:46.639Z,101541.31
2022-12-25T08:43:13.212Z,101538.41
2022-12-25T08:45:39.789Z,101525.66
2022-12-25T08:48:06.257Z,101515.56
2022-12-25T08:50:32.805Z,101504.94
2022-12-25T08:52:59.704Z,101505.47
2022-12-25T08:55:26.463Z,101499.91
2022-12-25T08:57:54.081Z,101508.94
2022-12-25T09:00:20.824Z,101513.19
2022-12-25T09:02:47.615Z,101503.91
2022-12-25T09:05:14.437Z,101503.66
2022-12-25T09:07:40.957Z,101511.09
2022-12-25T09:10:07.889Z,101504.72
2022-12-25T09:12:34.414Z,101504.97
2022-12-25T09:15:00.929Z,101501.25
2022-12-25T09:17:27.538Z,101502.59
2022-12-25T09:19:54.209Z,101521.47
2022-12-25T09:22:20.764Z,101524.66
2022-12-25T09:24:47.233Z,101525.44
2022-12-25T09:27:13.975Z,101518.00
2022-12-25T09:29:40.607Z,101512.97
2022-12-25T09:32:07.517Z,101523.84
2022-12-25T09:34:34.461Z,101526.78
2022-12-25T09:37:01.577Z,101536.06
2022-12-25T09:39:28.725Z,101543.50
2022-12-25T09:42:09.717Z,101538.72
2022-12-25T09:44:43.248Z,101528.38
2022-12-25T09:47:16.780Z,101520.38
2022-12-25T09:50:01.262Z,101516.66
2022-12-25T09:52:52.794Z,101510.56
2022-12-25T09:55:25.566Z,101507.63
2022-12-25T09:57:55.691Z,101516.94
2022-12-25T10:00:25.107Z,101521.97
2022-12-25T10:03:21.865Z,101498.63
2022-12-25T10:06:18.443Z,101491.97
2022-12-25T10:09:03.940Z,101487.72
2022-12-25T10:12:31.444Z,101502.06
2022-12-25T10:15:26.633Z,101498.09
2022-12-25T10:18:41.293Z,101491.94
2022-12-25T10:21:13.551Z,101489.03
2022-12-25T10:23:49.133Z,101479.19
2022-12-25T10:26:21.198Z,101485.03
2022-12-25T10:28:55.753Z,101484.78
2022-12-25T10:31:27.198Z,101476.53
2022-12-25T10:33:54.803Z,101479.72
2022-12-25T10:36:24.805Z,101475.19
2022-12-25T10:38:52.052Z,101469.09
2022-12-25T10:41:26.465Z,101473.34
2022-12-25T10:43:55.435Z,101467.75
2022-12-25T10:46:24.758Z,101465.66
2022-12-25T10:48:57.697Z,101456.59
2022-12-25T10:51:32.861Z,101467.75
2022-12-25T10:54:01.426Z,101452.91
2022-12-25T10:56:28.047Z,101441.19
2022-12-25T10:59:05.565Z,101422.03
2022-12-25T11:01:32.616Z,101422.56
2022-12-25T11:03:59.508Z,101423.38
2022-12-25T11:06:29.074Z,101417.25
2022-12-25T11:08:58.321Z,101409.00
2022-12-25T11:11:26.319Z,101405.56
2022-12-25T11:13:56.452Z,101398.38
2022-12-25T11:16:37.196Z,101393.59
2022-12-25T11:19:21.491Z,101391.72
2022-12-25T11:21:53.000Z,101388.78
2022-12-25T11:24:21.514Z,101387.75
2022-12-25T11:26:49.542Z,101373.63
2022-12-25T11:29:29.013Z,101372.59
2022-12-25T11:31:58.687Z,101378.44
2022-12-25T11:34:37.311Z,101371.75
2022-12-25T11:37:12.684Z,101350.22
2022-12-25T11:39:41.931Z,101349.16
2022-12-25T11:42:26.433Z,101339.03
2022-12-25T11:45:05.138Z,101317.50
2022-12-25T11:47:54.059Z,101324.38
2022-12-25T11:50:51.904Z,101329.69
2022-12-25T11:53:33.618Z,101322.25
2022-12-25T11:56:06.216Z,101320.41
2022-12-25T11:58:49.819Z,101332.09
2022-12-25T12:01:33.866Z,101331.00
2022-12-25T12:04:03.256Z,101337.41
2022-12-25T12:07:00.401Z,101328.88
2022-12-25T12:10:05.636Z,101328.09
2022-12-25T12:12:57.692Z,101321.97
2022-12-25T12:15:29.504Z,101339.50
2022-12-25T12:18:08.488Z,101323.28
2022-12-25T12:20:36.736Z,101320.09
2022-12-25T12:23:11.483Z,101318.75
2022-12-25T12:25:43.112Z,101315.03
2022-12-25T12:28:20.104Z,101310.78
2022-12-25T12:30:58.006Z,101308.63
2022-12-25T12:33:29.282Z,101303.03
2022-12-25T12:35:56.269Z,101310.75
2022-12-25T12:38:24.381Z,101296.66
2022-12-25T12:40:58.993Z,101288.97
2022-12-25T12:43:53.113Z,101281.78
2022-12-25T12:46:28.046Z,101280.47
2022-12-25T12:49:20.040Z,101284.69
2022-12-25T12:51:46.805Z,101293.19
2022-12-25T12:54:25.249Z,101287.34
2022-12-25T12:57:02.778Z,101289.22
2022-12-25T12:59:40.642Z,101300.66
2022-12-25T13:02:36.770Z,101299.88
2022-12-25T13:05:14.473Z,101293.47
2022-12-25T13:08:00.513Z,101284.69
2022-12-25T13:10:36.651Z,101276.72
2022-12-25T13:13:12.602Z,101270.59
2022-12-25T13:15:39.367Z,101259.19
2022-12-25T13:18:10.136Z,101254.91
2022-12-25T13:20:44.747Z,101241.88
2022-12-25T13:23:44.056Z,101241.63
2022-12-25T13:26:17.799Z,101243.22
2022-12-25T13:28:46.802Z,101243.22
2022-12-25T13:31:20.687Z,101243.50
2022-12-25T13:34:00.913Z,101252.25
2022-12-25T13:36:34.658Z,101230.47
2022-12-25T13:39:01.665Z,101232.84
2022-12-25T13:41:58.986Z,101231.78
2022-12-25T13:44:29.238Z,101230.97
2022-12-25T13:46:55.831Z,101220.91
2022-12-25T13:49:24.604Z,101220.09
2022-12-25T13:51:51.857Z,101225.41
2022-12-25T13:54:18.930Z,101231.25
2022-12-25T13:56:50.213Z,101236.88
2022-12-25T13:59:20.909Z,101225.41
2022-12-25T14:01:49.644Z,101225.97
2022-12-25T14:04:19.099Z,101220.09
2022-12-25T14:06:46.077Z,101215.59
2022-12-25T14:09:13.833Z,101211.34
2022-12-25T14:11:43.794Z,101218.25
2022-12-25T14:14:24.090Z,101213.72
2022-12-25T14:16:53.554Z,101217.16
2022-12-25T14:19:28.489Z,101222.47
2022-12-25T14:22:16.562Z,101225.66
2022-12-25T14:24:43.228Z,101229.69
2022-12-25T14:27:24.179Z,101228.59
2022-12-25T14:29:53.022Z,101227.00
2022-12-25T14:32:26.102Z,101207.63
2022-12-25T14:34:57.260Z,101217.69
2022-12-25T14:37:29.698Z,101216.91
2022-12-25T14:39:57.892Z,101215.03
2022-12-25T14:42:27.739Z,101204.66
2022-12-25T14:45:16.679Z,101200.94
2022-12-25T14:47:53.288Z,101197.19
2022-12-25T14:50:37.425Z,101192.69
2022-12-25T14:53:04.700Z,101189.22
2022-12-25T14:55:31.895Z,101190.03
2022-12-25T14:58:05.406Z,101204.13
2022-12-25T15:00:35.547Z,101203.34
2022-12-25T15:03:05.870Z,101196.13
2022-12-25T15:05:38.605Z,101196.94
2022-12-25T15:08:05.300Z,101208.34
2022-12-25T15:10:59.509Z,101205.41
2022-12-25T15:13:20.288Z,101213.66
2022-12-25T15:15:49.837Z,101204.13
2022-12-25T15:18:17.558Z,101207.56
2022-12-25T15:20:44.128Z,101213.66
2022-12-25T15:23:19.950Z,101211.25
2022-12-25T15:25:47.693Z,101212.63
2022-12-25T15:28:14.448Z,101207.28
2022-12-25T15:30:41.317Z,101210.75
2022-12-25T15:33:13.647Z,101202.75
2022-12-25T15:35:40.234Z,101204.38
2022-12-25T15:38:06.787Z,101207.53
2022-12-25T15:40:33.369Z,101208.59
2022-12-25T15:42:59.967Z,101200.09
2022-12-25T15:45:28.993Z,101201.97
2022-12-25T15:47:55.552Z,101194.50
2022-12-25T15:50:22.985Z,101191.84
2022-12-25T15:52:49.891Z,101189.97
2022-12-25T15:55:16.727Z,101191.59
2022-12-25T15:57:47.240Z,101187.56
2022-12-25T16:00:19.629Z,101191.06
2022-12-25T16:02:46.518Z,101173.78
2022-12-25T16:05:13.578Z,101165.78
2022-12-25T16:07:40.429Z,101160.47
2022-12-25T16:10:13.620Z,101169.28
2022-12-25T16:12:40.292Z,101178.31
2022-12-25T16:15:07.616Z,101177.00
2022-12-25T16:17:34.157Z,101176.47
2022-12-25T16:20:00.834Z,101189.25
2022-12-25T16:22:28.953Z,101185.00
2022-12-25T16:24:55.591Z,101184.22
2022-12-25T16:27:22.222Z,101190.84
2022-12-25T16:29:48.949Z,101190.06
2022-12-25T16:32:16.803Z,101183.69
2022-12-25T16:34:43.578Z,101179.41
2022-12-25T16:37:10.217Z,101167.16
2022-12-25T16:39:37.180Z,101171.13
2022-12-25T16:42:04.018Z,101163.94
2022-12-25T16:44:30.569Z,101162.34
2022-12-25T16:46:57.288Z,101150.66
2022-12-25T16:49:23.944Z,101145.34
2022-12-25T16:51:50.558Z,101143.47
2022-12-25T16:54:17.146Z,101158.91
2022-12-25T16:56:43.698Z,101156.75
2022-12-25T16:59:10.352Z,101170.06
2022-12-25T17:01:43.184Z,101159.41
2022-12-25T17:04:10.298Z,101153.81
2022-12-25T17:06:37.056Z,101154.34
2022-12-25T17:09:04.173Z,101155.91
2022-12-25T17:11:31.990Z,101146.38
2022-12-25T17:14:02.212Z,101147.41
2022-12-25T17:16:33.090Z,101147.16
2022-12-25T17:19:02.606Z,101150.59
2022-12-25T17:21:30.324Z,101146.06
2022-12-25T17:24:02.250Z,101151.13
2022-12-25T17:26:31.211Z,101152.97
2022-12-25T17:28:58.464Z,101152.19
2022-12-25T17:31:25.232Z,101158.31
2022-12-25T17:33:51.911Z,101155.91
2022-12-25T17:36:20.430Z,101158.84
2022-12-25T17:38:47.931Z,101155.41
2022-12-25T17:41:16.398Z,101149.81
2022-12-25T17:43:45.750Z,101151.16
2022-12-25T17:46:19.749Z,101149.28
2022-12-25T17:48:47.540Z,101150.34
2022-12-25T17:51:16.802Z,101160.22
2022-12-25T17:53:46.814Z,101164.47
2022-12-25T17:56:15.137Z,101163.38
2022-12-25T17:58:42.578Z,101159.66
2022-12-25T18:01:12.720Z,101167.91
2022-12-25T18:03:39.503Z,101151.44
2022-12-25T18:06:08.412Z,101143.47
2022-12-25T18:08:39.618Z,101143.97
2022-12-25T18:11:09.513Z,101136.25
2022-12-25T18:13:37.205Z,101137.34
2022-12-25T18:16:06.127Z,101143.47
2022-12-25T18:18:33.731Z,101128.56
2022-12-25T18:21:01.877Z,101128.56
2022-12-25T18:23:29.020Z,101128.56
2022-12-25T18:25:55.740Z,101124.06
2022-12-25T18:28:22.401Z,101124.59
2022-12-25T18:30:49.120Z,101137.91
2022-12-25T18:33:15.678Z,101137.38
2022-12-25T18:35:43.621Z,101150.69
2022-12-25T18:38:11.144Z,101149.09
2022-12-25T18:40:44.785Z,101142.97
2022-12-25T18:43:12.170Z,101135.00
2022-12-25T18:45:38.883Z,101140.81
2022-12-25T18:48:06.495Z,101148.53
2022-12-25T18:50:34.808Z,101160.53
2022-12-25T18:53:02.101Z,101154.69
2022-12-25T18:55:28.690Z,101152.31
2022-12-25T18:57:55.883Z,101146.72
2022-12-25T19:00:23.092Z,101145.13
2022-12-25T19:02:49.974Z,101140.09
2022-12-25T19:05:17.722Z,101137.13
2022-12-25T19:07:44.364Z,101127.31
2022-12-25T19:10:11.003Z,101136.06
2022-12-25T19:12:37.725Z,101139.53
2022-12-25T19:15:04.700Z,101140.31
2022-12-25T19:17:32.331Z,101132.06
2022-12-25T19:19:59.304Z,101133.41
2022-12-25T19:22:25.896Z,101133.97
2022-12-25T19:24:52.519Z,101122.78
2022-12-25T19:27:19.293Z,101133.94
2022-12-25T19:29:45.927Z,101129.97
2022-12-25T19:32:12.455Z,101130.75
2022-12-25T19:34:39.326Z,101131.81
2022-12-25T19:37:06.039Z,101126.50
2022-12-25T19:39:32.617Z,101135.00
2022-12-25T19:41:59.330Z,101134.22
2022-12-25T19:44:25.918Z,101136.06
2022-12-25T19:46:52.478Z,101147.56
2022-12-25T19:49:19.271Z,101147.38
2022-12-25T19:51:46.335Z,101153.78
2022-12-25T19:54:15.263Z,101160.16
2022-12-25T19:56:42.643Z,101161.47
2022-12-25T19:59:11.834Z,101163.06
2022-12-25T20:01:39.193Z,101156.66
2022-12-25T20:04:08.771Z,101151.06
2022-12-25T20:06:38.278Z,101154.25
2022-12-25T20:09:10.925Z,101150.81
2022-12-25T20:11:37.983Z,101151.06
2022-12-25T20:14:06.976Z,101160.94
2022-12-25T20:16:37.065Z,101160.41
2022-12-25T20:19:03.934Z,101155.09
2022-12-25T20:21:30.707Z,101151.66
2022-12-25T20:23:57.985Z,101159.63
2022-12-25T20:26:29.164Z,101161.47
2022-12-25T20:28:57.157Z,101163.91
2022-12-25T20:31:27.456Z,101162.56
2022-12-25T20:33:55.732Z,101150.56
2022-12-25T20:36:22.752Z,101163.59
2022-12-25T20:38:49.750Z,101148.41
2022-12-25T20:41:27.732Z,101158.00
2022-12-25T20:43:54.987Z,101160.34
2022-12-25T20:46:22.597Z,101157.16
2022-12-25T20:48:49.340Z,101154.19
2022-12-25T20:51:19.406Z,101161.91
2022-12-25T20:53:46.379Z,101157.69
2022-12-25T20:56:16.403Z,101165.88
2022-12-25T20:58:43.682Z,101160.28
2022-12-25T21:01:12.977Z,101156.84
2022-12-25T21:03:40.795Z,101159.50
2022-12-25T21:06:08.064Z,101168.00
2022-12-25T21:08:34.890Z,101165.91
2022-12-25T21:11:01.458Z,101167.09
2022-12-25T21:13:33.929Z,101176.16
2022-12-25T21:16:01.479Z,101167.91
2022-12-25T21:18:28.424Z,101169.84
2022-12-25T21:21:03.169Z,101183.44
2022-12-25T21:23:30.047Z,101173.06
2022-12-25T21:25:56.583Z,101176.81
2022-12-25T21:28:25.828Z,101175.00
2022-12-25T21:30:52.608Z,101178.75
2022-12-25T21:33:37.617Z,101179.56
2022-12-25T21:36:10.760Z,101191.28
2022-12-25T21:38:38.948Z,101199.53
2022-12-25T21:41:11.123Z,101209.13
2022-12-25T21:43:39.464Z,101203.81
2022-12-25T21:46:08.337Z,101213.38
2022-12-25T21:48:36.576Z,101211.53
2022-12-25T21:51:23.843Z,101218.19
2022-12-25T21:53:50.663Z,101212.09
2022-12-25T21:56:17.996Z,101209.44
2022-12-25T21:58:44.628Z,101216.06
2022-12-25T22:01:11.885Z,101211.31
2022-12-25T22:03:38.738Z,101212.63
2022-12-25T22:06:24.660Z,101208.66
2022-12-25T22:08:51.383Z,101221.41
2022-12-25T22:11:36.465Z,101222.47
2022-12-25T22:14:52.685Z,101206.28
2022-12-25T22:17:27.227Z,101216.38
2022-12-25T22:19:54.339Z,101222.19
2022-12-25T22:22:23.140Z,101220.63
2022-12-25T22:24:52.842Z,101222.75
2022-12-25T22:27:19.797Z,101217.69
2022-12-25T22:29:46.491Z,101224.09
2022-12-25T22:32:14.215Z,101224.88
2022-12-25T22:34:40.918Z,101225.13
2022-12-25T22:37:09.072Z,101212.16
2022-12-25T22:39:35.769Z,101197.28
2022-12-25T22:42:02.475Z,101207.09
2022-12-25T22:44:31.246Z,101197.53
2022-12-25T22:46:57.794Z,101191.44
2022-12-25T22:49:25.649Z,101205.78
2022-12-25T22:51:53.064Z,101201.53
2022-12-25T22:54:21.689Z,101199.13
2022-12-25T22:56:50.357Z,101185.88
2022-12-25T22:59:20.129Z,101194.13
2022-12-25T23:01:46.827Z,101189.84
2022-12-25T23:04:13.451Z,101198.91
2022-12-25T23:06:40.555Z,101216.38
2022-12-25T23:09:09.178Z,101210.56
2022-12-25T23:11:36.377Z,101203.38
2022-12-25T23:14:22.245Z,101217.72
2022-12-25T23:16:48.777Z,101201.03
2022-12-25T23:19:35.001Z,101199.16
2022-12-25T23:22:20.824Z,101188.00
2022-12-25T23:25:05.934Z,101180.06
2022-12-25T23:27:32.467Z,101176.63
2022-12-25T23:29:59.210Z,101176.88
2022-12-25T23:32:28.519Z,101181.09
2022-12-25T23:34:55.968Z,101176.09
2022-12-25T23:37:22.533Z,101189.34
2022-12-25T23:39:50.221Z,101203.66
2022-12-25T23:42:17.532Z,101201.00
2022-12-25T23:44:44.835Z,101221.19
2022-12-25T23:47:11.598Z,101216.91
2022-12-25T23:49:38.430Z,101215.06
2022-12-25T23:52:05.297Z,101208.97
2022-12-25T23:54:32.689Z,101205.25
2022-12-25T23:57:01.037Z,101212.41
2022-12-25T23:59:30.041Z,101217.72
